createdAt,value
2023-01-23T00:04:42.318Z,85.32
2023-01-23T00:09:45.251Z,85.13
2023-01-23T00:14:48.122Z,85.20
2023-01-23T00:19:53.984Z,85.36
2023-01-23T00:24:56.774Z,85.04
2023-01-23T00:29:59.669Z,85.27
2023-01-23T00:35:04.037Z,85.36
2023-01-23T00:40:08.282Z,85.22
2023-01-23T00:45:11.824Z,85.28
2023-01-23T00:50:16.134Z,85.04
2023-01-23T00:55:18.929Z,85.16
2023-01-23T01:00:22.038Z,85.23
2023-01-23T01:05:26.148Z,85.11
2023-01-23T01:10:29.647Z,85.29
2023-01-23T01:15:32.807Z,85.02
2023-01-23T01:20:37.004Z,85.29
2023-01-23T01:25:40.192Z,85.07
2023-01-23T01:30:43.087Z,84.96
2023-01-23T01:35:47.221Z,84.79
2023-01-23T01:40:50.402Z,84.89
2023-01-23T01:46:13.663Z,85.00
2023-01-23T01:51:23.647Z,85.13
2023-01-23T01:56:30.140Z,84.99
2023-01-23T02:01:33.348Z,84.84
2023-01-23T02:06:38.990Z,84.97
2023-01-23T02:11:43.432Z,84.95
2023-01-23T02:16:51.003Z,84.77
2023-01-23T02:22:07.180Z,84.85
2023-01-23T02:27:11.605Z,84.69
2023-01-23T02:32:14.674Z,85.00
2023-01-23T02:37:17.531Z,84.80
2023-01-23T02:42:23.702Z,84.61
2023-01-23T02:47:29.523Z,84.73
2023-01-23T02:52:34.248Z,84.81
2023-01-23T02:57:38.365Z,84.86
2023-01-23T03:02:41.207Z,84.80
2023-01-23T03:07:46.122Z,84.81
2023-01-23T03:12:50.270Z,84.59
2023-01-23T03:17:53.710Z,84.53
2023-01-23T03:22:57.221Z,84.56
2023-01-23T03:28:01.433Z,84.94
2023-01-23T03:33:04.397Z,84.57
2023-01-23T03:38:07.411Z,84.79
2023-01-23T03:43:11.718Z,84.38
2023-01-23T03:48:20.363Z,84.08
2023-01-23T03:53:23.365Z,84.41
2023-01-23T03:58:28.014Z,84.24
2023-01-23T04:03:32.830Z,84.05
2023-01-23T04:08:35.587Z,84.02
2023-01-23T04:13:40.237Z,83.91
2023-01-23T04:18:44.132Z,83.88
2023-01-23T04:23:46.983Z,83.52
2023-01-23T04:28:51.819Z,83.57
2023-01-23T04:33:54.642Z,83.41
2023-01-23T04:38:59.351Z,83.50
2023-01-23T04:44:19.312Z,83.62
2023-01-23T04:49:33.750Z,83.38
2023-01-23T04:54:36.760Z,83.47
2023-01-23T04:59:41.694Z,83.37
2023-01-23T05:04:44.568Z,83.64
2023-01-23T05:09:47.460Z,83.47
2023-01-23T05:14:53.386Z,83.69
2023-01-23T05:19:56.492Z,83.36
2023-01-23T05:24:59.262Z,83.69
2023-01-23T05:30:07.992Z,83.69
2023-01-23T05:35:11.827Z,83.63
2023-01-23T05:40:17.768Z,83.46
2023-01-23T05:45:42.280Z,83.38
2023-01-23T05:50:51.921Z,83.62
2023-01-23T05:55:55.566Z,83.23
2023-01-23T06:01:00.616Z,83.32
2023-01-23T06:06:21.754Z,83.41
2023-01-23T06:11:24.504Z,82.93
2023-01-23T06:16:28.856Z,83.26
2023-01-23T06:21:32.621Z,83.02
2023-01-23T06:26:35.814Z,83.20
2023-01-23T06:31:40.111Z,83.37
2023-01-23T06:36:46.156Z,83.32
2023-01-23T06:41:49.169Z,83.13
2023-01-23T06:46:59.650Z,82.94
2023-01-23T06:52:02.649Z,83.14
2023-01-23T06:57:06.039Z,83.03
2023-01-23T07:02:12.037Z,83.24
2023-01-23T07:07:23.115Z,83.46
2023-01-23T07:12:26.731Z,83.53
2023-01-23T07:17:30.989Z,83.35
2023-01-23T07:22:33.849Z,83.26
2023-01-23T07:27:36.659Z,83.47
2023-01-23T07:32:40.799Z,83.78
2023-01-23T07:37:43.628Z,83.81
2023-01-23T07:42:46.743Z,83.61
2023-01-23T07:47:50.866Z,83.48
2023-01-23T07:52:56.131Z,83.97
2023-01-23T07:57:59.605Z,83.15
2023-01-23T08:03:03.871Z,82.22
2023-01-23T08:08:13.421Z,81.81
2023-01-23T08:13:16.670Z,81.14
2023-01-23T08:18:20.798Z,80.48
2023-01-23T08:23:25.732Z,78.51
2023-01-23T08:28:28.873Z,78.37
2023-01-23T08:33:34.218Z,79.36
2023-01-23T08:38:37.009Z,79.32
2023-01-23T08:43:41.435Z,80.01
2023-01-23T08:48:45.645Z,80.24
2023-01-23T08:53:48.674Z,80.35
2023-01-23T08:58:52.167Z,80.48
2023-01-23T09:03:57.553Z,80.75
2023-01-23T09:09:00.369Z,80.44
2023-01-23T09:14:03.116Z,80.56
2023-01-23T09:19:08.152Z,80.78
2023-01-23T09:24:10.896Z,80.80
2023-01-23T09:29:13.658Z,80.64
2023-01-23T09:34:17.870Z,80.42
2023-01-23T09:39:21.873Z,80.44
2023-01-23T09:44:36.226Z,78.50
2023-01-23T09:49:47.118Z,78.66
2023-01-23T09:54:54.029Z,78.48
2023-01-23T10:00:04.909Z,77.40
2023-01-23T10:05:15.678Z,77.16
2023-01-23T10:10:54.737Z,77.08
2023-01-23T10:16:11.406Z,77.15
2023-01-23T10:21:26.346Z,76.21
2023-01-23T10:26:32.972Z,76.14
2023-01-23T10:31:39.617Z,76.25
2023-01-23T10:36:55.914Z,76.67
2023-01-23T10:42:02.482Z,76.53
2023-01-23T10:47:18.956Z,76.44
2023-01-23T10:52:36.254Z,77.03
2023-01-23T10:57:48.370Z,78.42
2023-01-23T11:02:51.547Z,79.31
2023-01-23T11:07:56.241Z,78.71
2023-01-23T11:13:00.839Z,78.61
2023-01-23T11:18:23.670Z,79.04
2023-01-23T11:23:27.752Z,78.59
2023-01-23T11:28:35.313Z,78.16
2023-01-23T11:33:44.331Z,78.20
2023-01-23T11:38:53.207Z,78.37
2023-01-23T11:43:56.154Z,78.39
2023-01-23T11:49:14.646Z,78.21
2023-01-23T11:54:39.245Z,78.50
2023-01-23T12:00:00.941Z,78.60
2023-01-23T12:05:22.499Z,78.32
2023-01-23T12:10:31.377Z,78.27
2023-01-23T12:15:44.658Z,77.81
2023-01-23T12:20:57.492Z,77.32
2023-01-23T12:26:13.277Z,76.29
2023-01-23T12:31:30.118Z,75.37
2023-01-23T12:37:12.331Z,75.69
2023-01-23T12:42:26.313Z,76.83
2023-01-23T12:47:33.941Z,77.99
2023-01-23T12:52:41.010Z,76.02
2023-01-23T12:58:00.043Z,76.82
2023-01-23T13:03:25.926Z,77.00
2023-01-23T13:08:40.511Z,78.34
2023-01-23T13:13:55.236Z,77.95
2023-01-23T13:19:17.128Z,78.20
2023-01-23T13:24:59.607Z,79.07
2023-01-23T13:30:06.149Z,79.57
2023-01-23T13:35:50.026Z,79.68
2023-01-23T13:41:26.245Z,79.83
2023-01-23T14:24:22.870Z,79.16
2023-01-23T14:29:28.431Z,79.09
2023-01-23T14:34:40.193Z,78.85
2023-01-23T14:39:53.023Z,79.51
2023-01-23T14:44:58.023Z,80.03
2023-01-23T14:50:03.503Z,79.82
2023-01-23T14:55:32.655Z,79.24
2023-01-23T15:00:36.695Z,79.48
2023-01-23T15:05:41.701Z,79.64
2023-01-23T15:10:47.466Z,79.77
2023-01-23T15:15:56.659Z,79.74
2023-01-23T15:21:02.937Z,79.67
2023-01-23T15:26:23.723Z,78.71
2023-01-23T15:31:30.679Z,78.85
2023-01-23T15:36:34.971Z,79.26
2023-01-23T15:41:45.661Z,79.95
2023-01-23T15:46:48.799Z,79.54
2023-01-23T15:51:53.333Z,79.37
2023-01-23T15:57:06.665Z,80.05
2023-01-23T16:02:29.713Z,80.09
2023-01-23T16:07:37.583Z,79.94
2023-01-23T16:12:40.359Z,79.75
2023-01-23T16:17:43.173Z,79.53
2023-01-23T16:22:50.064Z,79.33
2023-01-23T16:27:52.867Z,79.13
2023-01-23T16:32:57.186Z,79.39
2023-01-23T16:38:01.390Z,79.68
2023-01-23T16:43:04.160Z,80.46
2023-01-23T16:48:09.123Z,80.10
2023-01-23T16:53:23.141Z,80.83
2023-01-23T16:58:28.944Z,80.09
2023-01-23T17:03:36.175Z,80.40
2023-01-23T17:08:40.366Z,80.65
2023-01-23T17:13:43.993Z,80.81
2023-01-23T17:18:46.844Z,81.18
2023-01-23T17:23:50.964Z,81.20
2023-01-23T17:28:53.837Z,80.63
2023-01-23T17:33:57.059Z,80.51
2023-01-23T17:39:01.427Z,80.63
2023-01-23T17:44:04.345Z,80.21
2023-01-23T17:49:30.192Z,79.84
2023-01-23T17:54:34.555Z,79.85
2023-01-23T17:59:37.351Z,79.99
2023-01-23T18:04:44.066Z,80.26
2023-01-23T18:09:48.212Z,80.62
2023-01-23T18:14:57.320Z,80.15
2023-01-23T18:20:00.652Z,79.84
2023-01-23T18:25:06.083Z,79.83
2023-01-23T18:30:22.176Z,79.71
2023-01-23T18:35:33.797Z,79.59
2023-01-23T18:40:49.239Z,79.73
2023-01-23T18:45:53.924Z,80.34
2023-01-23T18:51:09.597Z,80.46
2023-01-23T18:56:23.547Z,80.12
2023-01-23T19:01:36.095Z,80.31
2023-01-23T19:06:41.227Z,80.56
2023-01-23T19:11:57.338Z,80.22
2023-01-23T19:17:08.789Z,80.65
2023-01-23T19:22:13.547Z,80.35
2023-01-23T19:27:22.335Z,80.42
2023-01-23T19:32:25.872Z,80.61
2023-01-23T19:37:28.702Z,80.81
2023-01-23T19:42:48.884Z,80.69
2023-01-23T19:47:54.352Z,80.96
2023-01-23T19:52:58.596Z,81.34
2023-01-23T19:58:02.772Z,81.34
2023-01-23T20:03:05.991Z,81.10
2023-01-23T20:08:09.924Z,80.60
2023-01-23T20:13:15.156Z,80.22
2023-01-23T20:18:18.117Z,80.61
2023-01-23T20:23:20.926Z,80.13
2023-01-23T20:28:25.066Z,80.32
2023-01-23T20:33:27.826Z,80.43
2023-01-23T20:38:30.909Z,80.58
2023-01-23T20:43:35.394Z,80.72
2023-01-23T20:48:39.787Z,80.64
2023-01-23T20:53:43.182Z,80.42
2023-01-23T20:59:06.391Z,80.87
2023-01-23T21:04:09.186Z,80.94
2023-01-23T21:09:11.975Z,81.03
2023-01-23T21:14:16.489Z,80.54
2023-01-23T21:19:19.393Z,80.74
2023-01-23T21:24:22.326Z,80.77
2023-01-23T21:29:26.544Z,81.24
2023-01-23T21:34:29.411Z,80.62
2023-01-23T21:39:32.180Z,80.39
2023-01-23T21:44:36.314Z,80.83
2023-01-23T21:49:39.084Z,80.65
2023-01-23T21:54:43.138Z,80.56
2023-01-23T22:00:07.314Z,80.70
2023-01-23T22:05:16.094Z,80.85
2023-01-23T22:10:19.057Z,80.75
2023-01-23T22:15:23.679Z,80.91
2023-01-23T22:20:26.797Z,80.75
2023-01-23T22:25:29.581Z,81.03
2023-01-23T22:30:33.677Z,80.87
2023-01-23T22:35:38.806Z,80.67
2023-01-23T22:40:42.343Z,80.38
2023-01-23T22:45:46.397Z,80.14
2023-01-23T22:50:49.161Z,79.97
2023-01-23T22:55:51.902Z,80.14
2023-01-23T23:00:56.112Z,80.50
2023-01-23T23:05:59.783Z,80.23
2023-01-23T23:11:03.419Z,79.82
2023-01-23T23:16:09.245Z,79.81
2023-01-23T23:21:13.631Z,79.39
2023-01-23T23:26:16.817Z,78.38
2023-01-23T23:31:21.048Z,77.86
2023-01-23T23:36:23.946Z,77.76
2023-01-23T23:41:26.786Z,78.47
2023-01-23T23:46:30.903Z,77.93
2023-01-23T23:51:33.640Z,77.74
2023-01-23T23:56:36.359Z,78.02
